Star Mariella — V7KK3 — position and weather

sailwx.info

Track history (hours):
 
Tides and Currents Weather Stations Pressure Air Temp Water Temp Dewpoint Dewpoint Depression Visibility Wind Speed Wind Dir Waves Ship Positions

Star Mariella

Last reported at 2017-Aug-12 17:08 UTC. Time now 2017-Aug-20 00:23 UTC.
Position N 24°16' W 113°50'.

Length 229 m; draft 11.9 m.

Type: Cargo ship. MMSI: 538002632.

Date/timePositionNaut miles runAvg speedWind from/ knotsBaromVisibWave heightAir tempDewpointWater temp
2017-Aug-12 17:08N 24°16' W 113°50'1111.0
2017-Aug-12 16:06N 24°23' W 113°59'110.8
2017-Aug-12 16:00N 24°24' W 114°00'610.9
2017-Aug-12 15:28N 24°27' W 114°06'810.8
2017-Aug-12 14:43N 24°32' W 114°13'210.8
2017-Aug-12 14:29N 24°34' W 114°15'9010.9
2017-Aug-12 06:10N 25°28' W 115°35'2311.0
2017-Aug-12 04:06N 25°42' W 115°55'6810.9
2017-Aug-11 21:53N 26°23' W 116°55'511.1
2017-Aug-11 21:27N 26°25' W 116°59'8910.9
2017-Aug-11 13:14N 27°19' W 118°20'210.8
2017-Aug-11 13:01N 27°20' W 118°22'810.8
2017-Aug-11 12:16N 27°25' W 118°29'311.0
2017-Aug-11 11:58N 27°27' W 118°32'1911.0
2017-Aug-11 10:14N 27°39' W 118°49'211.2
2017-Aug-11 10:00N 27°40' W 118°51'611.0
2017-Aug-11 09:29N 27°44' W 118°56'611.0
2017-Aug-11 08:58N 27°47' W 119°02'511.3
2017-Aug-11 08:30N 27°50' W 119°06'611.1
2017-Aug-11 08:01N 27°54' W 119°11'911.0
2017-Aug-11 07:10N 27°59' W 119°20'311.3
2017-Aug-11 06:54N 28°01' W 119°22'411.0
2017-Aug-11 06:30N 28°04' W 119°26'611.1
2017-Aug-11 05:57N 28°07' W 119°32'511.3
2017-Aug-11 05:29N 28°11' W 119°37'511.2
2017-Aug-11 05:01N 28°14' W 119°41'611.1
2017-Aug-11 04:30N 28°17' W 119°47'611.1
2017-Aug-11 04:00N 28°21' W 119°52'611.1
2017-Aug-11 03:31N 28°24' W 119°57'911.0
2017-Aug-11 02:43N 28°29' W 120°05'310.8
2017-Aug-11 02:29N 28°30' W 120°07'511.0
2017-Aug-11 02:00N 28°34' W 120°12'611.1
2017-Aug-11 01:30N 28°37' W 120°17'511.1
2017-Aug-11 01:00N 28°40' W 120°22'611.1
2017-Aug-11 00:27N 28°44' W 120°27'511.0
2017-Aug-11 00:01N 28°47' W 120°32'611.0
2017-Aug-10 23:30N 28°50' W 120°37'611.1
2017-Aug-10 23:00N 28°54' W 120°42'611.0
2017-Aug-10 22:30N 28°57' W 120°47'610.8
2017-Aug-10 21:55N 29°01' W 120°53'510.7
2017-Aug-10 21:26N 29°04' W 120°57'510.6
2017-Aug-10 21:00N 29°07' W 121°02'810.7
2017-Aug-10 20:15N 29°11' W 121°09'310.7
2017-Aug-10 20:00N 29°13' W 121°11'610.7
2017-Aug-10 19:26N 29°17' W 121°17'610.7
2017-Aug-10 18:51N 29°21' W 121°23'410.8
2017-Aug-10 18:27N 29°23' W 121°27'510.7
2017-Aug-10 18:01N 29°26' W 121°31'811.0
2017-Aug-10 17:15N 29°31' W 121°39'311.0
2017-Aug-10 17:00N 29°33' W 121°41'710.9
2017-Aug-10 16:22N 29°37' W 121°48'410.9
2017-Aug-10 15:59N 29°39' W 121°51'911.0
2017-Aug-10 15:13N 29°44' W 121°59'311.0
2017-Aug-10 14:54N 29°46' W 122°03'511.2
2017-Aug-10 14:26N 29°49' W 122°07'811.4
2017-Aug-10 13:43N 29°55' W 122°15'211.5
2017-Aug-10 13:31N 29°56' W 122°17'611.2
2017-Aug-10 13:00N 29°59' W 122°22'611.2
2017-Aug-10 12:31N 30°04' W 122°25'611.3
2017-Aug-10 11:57N 30°09' W 122°29'511.3
2017-Aug-10 11:30N 30°14' W 122°32'711.3
2017-Aug-10 10:55N 30°19' W 122°36'511.3
2017-Aug-10 10:28N 30°24' W 122°40'611.3
2017-Aug-10 09:56N 30°29' W 122°43'511.2
2017-Aug-10 09:30N 30°33' W 122°46'711.3
2017-Aug-10 08:55N 30°39' W 122°50'611.0
2017-Aug-10 08:22N 30°44' W 122°54'411.0
2017-Aug-10 08:00N 30°47' W 122°56'511.1
2017-Aug-10 07:31N 30°52' W 122°59'611.0
2017-Aug-10 07:00N 30°57' W 123°03'511.0
2017-Aug-10 06:30N 31°01' W 123°06'611.1
2017-Aug-10 06:00N 31°06' W 123°09'510.9
2017-Aug-10 05:30N 31°11' W 123°13'610.7
2017-Aug-10 04:58N 31°16' W 123°16'510.7
2017-Aug-10 04:31N 31°20' W 123°19'610.8
2017-Aug-10 03:54N 31°26' W 123°23'410.8
2017-Aug-10 03:31N 31°29' W 123°26'510.6
2017-Aug-10 03:01N 31°34' W 123°29'610.5
2017-Aug-10 02:28N 31°39' W 123°32'610.8
2017-Aug-10 01:56N 31°44' W 123°36'2010.7
2017-Aug-10 00:06N 32°00' W 123°48'3611.0
2017-Aug-09 20:51N 32°31' W 124°10'611.0
2017-Aug-09 20:21N 32°36' W 124°13'911.1
2017-Aug-09 19:32N 32°43' W 124°19'110.8
2017-Aug-09 19:26N 32°44' W 124°19'1611.0
2017-Aug-09 18:00N 32°58' W 124°29'611.0
2017-Aug-09 17:26N 33°03' W 124°33'810.9
2017-Aug-09 16:41N 33°10' W 124°38'710.9
2017-Aug-09 16:05N 33°16' W 124°42'111.0
2017-Aug-09 15:58N 33°17' W 124°43'511.0
2017-Aug-09 15:29N 33°21' W 124°47'511.2
2017-Aug-09 15:00N 33°26' W 124°50'511.0
2017-Aug-09 14:31N 33°31' W 124°53'2311.1
2017-Aug-09 12:26N 33°50' W 125°07'911.5
2017-Aug-09 11:40N 33°58' W 125°13'1411.4
2017-Aug-09 10:27N 34°10' W 125°22'2111.2
2017-Aug-09 08:34N 34°28' W 125°35'111.1
2017-Aug-09 08:27N 34°29' W 125°36'1811.0
2017-Aug-09 06:49N 34°44' W 125°47'510.6
2017-Aug-09 06:22N 34°48' W 125°50'25710.6
2017-Aug-08 06:16N 38°38' W 128°14'610.6
2017-Aug-08 05:43N 38°43' W 128°17'1110.8
2017-Aug-08 04:40N 38°53' W 128°23'1111.0
2017-Aug-08 03:39N 39°04' W 128°28'210.9
2017-Aug-08 03:28N 39°06' W 128°29'510.9
2017-Aug-08 03:00N 39°10' W 128°32'510.8
2017-Aug-08 02:30N 39°15' W 128°35'610.7
2017-Aug-08 01:55N 39°21' W 128°38'410.6
2017-Aug-08 01:30N 39°25' W 128°40'510.3
2017-Aug-08 01:00N 39°30' W 128°43'510.2
2017-Aug-08 00:30N 39°34' W 128°46'2510.4
2017-Aug-07 22:04N 39°59' W 128°52'810.6
2017-Aug-07 21:18N 40°07' W 128°54'510.7
2017-Aug-07 20:50N 40°12' W 128°54'610.6
2017-Aug-07 20:16N 40°18' W 128°55'310.4
2017-Aug-07 20:00N 40°21' W 128°55'510.7
2017-Aug-07 19:30N 40°26' W 128°56'510.5
2017-Aug-07 19:00N 40°31' W 128°57'710.4
2017-Aug-07 18:21N 40°38' W 128°58'510.6
2017-Aug-07 17:54N 40°43' W 128°59'410.4
2017-Aug-07 17:30N 40°47' W 128°59'510.2
2017-Aug-07 17:00N 40°52' W 129°00'510.2
2017-Aug-07 16:30N 40°57' W 129°01'1010.6
2017-Aug-07 15:35N 41°07' W 129°02'110.5
2017-Aug-07 15:30N 41°08' W 129°02'510.9
2017-Aug-07 15:00N 41°13' W 129°03'510.6
2017-Aug-07 14:30N 41°18' W 129°04'610.5
2017-Aug-07 13:59N 41°24' W 129°04'610.4
2017-Aug-07 13:24N 41°30' W 129°05'410.6
2017-Aug-07 12:59N 41°34' W 129°06'610.6
2017-Aug-07 12:25N 41°40' W 129°07'510.7
2017-Aug-07 11:58N 41°45' W 129°08'510.7
2017-Aug-07 11:30N 41°50' W 129°08'510.8
2017-Aug-07 11:00N 41°55' W 129°09'510.7
2017-Aug-07 10:30N 42°01' W 129°10'510.9
2017-Aug-07 10:00N 42°06' W 129°11'510.9
2017-Aug-07 09:30N 42°12' W 129°12'510.7
2017-Aug-07 09:00N 42°17' W 129°12'610.7
2017-Aug-07 08:29N 42°22' W 129°13'510.7
2017-Aug-07 08:00N 42°27' W 129°14'510.5
2017-Aug-07 07:30N 42°33' W 129°14'510.6
2017-Aug-07 07:00N 42°38' W 129°14'510.5
2017-Aug-07 06:30N 42°43' W 129°13'510.6
2017-Aug-07 06:00N 42°48' W 129°13'610.6
2017-Aug-07 05:29N 42°54' W 129°13'510.6
2017-Aug-07 05:00N 42°59' W 129°13'610.9
2017-Aug-07 04:28N 43°05' W 129°13'610.8
2017-Aug-07 03:54N 43°11' W 129°12'410.8
2017-Aug-07 03:30N 43°15' W 129°12'510.7
2017-Aug-07 02:59N 43°21' W 129°12'810.6
2017-Aug-07 02:14N 43°29' W 129°11'310.6
2017-Aug-07 01:57N 43°32' W 129°11'817.4
2017-Aug-07 01:28N 43°40' W 129°11'2 3.4
2017-Aug-07 01:00N 43°42' W 129°11'510.3
2017-Aug-07 00:30N 43°47' W 129°11'510.6
2017-Aug-07 00:00N 43°52' W 129°11'510.4
2017-Aug-06 23:30N 43°57' W 129°11'510.3
2017-Aug-06 23:00N 44°03' W 129°11'510.5
2017-Aug-06 22:30N 44°08' W 129°10'510.5
2017-Aug-06 22:00N 44°13' W 129°10'510.6
2017-Aug-06 21:30N 44°18' W 129°10'710.8
2017-Aug-06 20:54N 44°25' W 129°09'410.9
2017-Aug-06 20:30N 44°29' W 129°09'610.6
2017-Aug-06 19:58N 44°35' W 129°09'910.9
2017-Aug-06 19:10N 44°44' W 129°09'210.9
2017-Aug-06 19:00N 44°45' W 129°09'510.9
2017-Aug-06 18:30N 44°51' W 129°08'510.9
2017-Aug-06 18:00N 44°56' W 129°08'510.7
2017-Aug-06 17:30N 45°02' W 129°08'510.8
2017-Aug-06 17:00N 45°07' W 129°08'810.8
2017-Aug-06 16:14N 45°15' W 129°07'1510.9
2017-Aug-06 14:52N 45°30' W 129°07'710.9
2017-Aug-06 14:14N 45°37' W 129°07'5910.5
2017-Aug-06 08:40N 46°36' W 128°60'210.5
2017-Aug-06 08:29N 46°37' W 128°57'810.7
2017-Aug-06 07:45N 46°41' W 128°48'910.8
2017-Aug-06 06:57N 46°46' W 128°37'510.7
2017-Aug-06 06:30N 46°49' W 128°32'610.7
2017-Aug-06 05:55N 46°52' W 128°24'510.9
2017-Aug-06 05:30N 46°55' W 128°19'611.1
2017-Aug-06 04:58N 46°58' W 128°11'611.0
2017-Aug-06 04:24N 47°02' W 128°04'410.8
2017-Aug-06 04:00N 47°04' W 127°59'610.8
2017-Aug-06 03:27N 47°07' W 127°51'510.7
2017-Aug-06 02:59N 47°10' W 127°45'1110.8
2017-Aug-06 01:58N 47°16' W 127°32'510.5
2017-Aug-06 01:27N 47°19' W 127°25'810.4
2017-Aug-06 00:44N 47°23' W 127°16'510.8
2017-Aug-06 00:17N 47°26' W 127°10'311.1
2017-Aug-06 00:00N 47°28' W 127°06'510.9
2017-Aug-05 23:30N 47°31' W 126°60'611.1
2017-Aug-05 23:00N 47°34' W 126°53'611.1
2017-Aug-05 22:26N 47°38' W 126°45'511.1
2017-Aug-05 22:00N 47°40' W 126°39'611.0
2017-Aug-05 21:30N 47°43' W 126°33'510.7
2017-Aug-05 21:00N 47°47' W 126°26'910.7
2017-Aug-05 20:11N 47°52' W 126°16'210.5
2017-Aug-05 19:58N 47°53' W 126°13'510.4
2017-Aug-05 19:30N 47°55' W 126°07'510.5
2017-Aug-05 19:00N 47°58' W 126°00'510.5
2017-Aug-05 18:30N 48°01' W 125°54'610.5
2017-Aug-05 17:58N 48°04' W 125°47'510.4
2017-Aug-05 17:30N 48°07' W 125°40'610.7
2017-Aug-05 16:57N 48°10' W 125°33'510.8
2017-Aug-05 16:30N 48°13' W 125°27'710.5
2017-Aug-05 15:51N 48°17' W 125°19'511.0
2017-Aug-05 15:27N 48°19' W 125°13'1011.0
2017-Aug-05 14:33N 48°28' W 125°05'310.8
2017-Aug-05 14:16N 48°30' W 125°03'2412.0
2017-Aug-05 12:18N 48°26' W 124°27'412.5
2017-Aug-05 11:57N 48°25' W 124°21'612.2
2017-Aug-05 11:29N 48°22' W 124°14'611.6
2017-Aug-05 10:59N 48°20' W 124°06'511.4
2017-Aug-05 10:30N 48°18' W 123°58'611.3
2017-Aug-05 10:00N 48°17' W 123°49'510.5
2017-Aug-05 09:30N 48°17' W 123°42'5 9.7
2017-Aug-05 09:00N 48°16' W 123°34'4 8.5
2017-Aug-05 08:30N 48°17' W 123°28'510.4
2017-Aug-05 08:00N 48°22' W 123°25'2 4.3
2017-Aug-05 07:30N 48°23' W 123°22'1 2.9
2017-Aug-05 07:00N 48°23' W 123°21'5 9.6
2017-Aug-05 06:30N 48°25' W 123°14'611.2
2017-Aug-05 06:00N 48°30' W 123°13'713.3
2017-Aug-05 05:30N 48°37' W 123°14'611.4
2017-Aug-05 05:00N 48°42' W 123°15'713.3
2017-Aug-05 04:30N 48°45' W 123°05'5 9.7
2017-Aug-05 04:00N 48°49' W 123°01'713.2
2017-Aug-05 03:30N 48°54' W 123°08'713.0
2017-Aug-05 02:58N 48°59' W 123°16'613.0
2017-Aug-05 02:30N 49°03' W 123°22'612.1
2017-Aug-05 02:00N 49°09' W 123°22'612.1
2017-Aug-05 01:30N 49°15' W 123°20'510.7
2017-Aug-05 01:00N 49°19' W 123°15'5 9.4
2017-Aug-05 00:30N 49°19' W 123°08'1 1.8
2017-Aug-05 00:00N 49°19' W 123°06'0 0.0
2017-Aug-04 23:29N 49°19' W 123°06'0 0.0
2017-Aug-04 22:59N 49°19' W 123°06'0 0.0
2017-Aug-04 22:29N 49°19' W 123°06'0 0.0
2017-Aug-04 21:59N 49°19' W 123°06'0 0.0
2017-Aug-04 21:29N 49°19' W 123°06'0 0.0
2017-Aug-04 20:59N 49°19' W 123°06'0 0.0
2017-Aug-04 20:29N 49°19' W 123°06'0 0.0
2017-Aug-04 19:59N 49°19' W 123°06'0 0.0
2017-Aug-04 19:29N 49°19' W 123°06'0 0.0
2017-Aug-04 18:59N 49°19' W 123°06'0 0.0
2017-Aug-04 18:29N 49°19' W 123°06'0 0.0
2017-Aug-04 17:59N 49°18' W 123°06'0 0.0
2017-Aug-04 17:29N 49°19' W 123°06'0 0.0
2017-Aug-04 16:59N 49°19' W 123°06'0 0.0
2017-Aug-04 16:29N 49°19' W 123°06'0 0.0
2017-Aug-04 15:59N 49°19' W 123°06'0 0.0
2017-Aug-04 15:23N 49°19' W 123°06'0 0.0
2017-Aug-04 14:59N 49°19' W 123°06'0 0.0
2017-Aug-04 13:59N 49°19' W 123°06'0 0.0
2017-Aug-04 13:29N 49°19' W 123°06'0 0.0
2017-Aug-04 12:59N 49°19' W 123°06'0 0.0
2017-Aug-04 12:29N 49°19' W 123°06'0 0.0
2017-Aug-04 11:59N 49°18' W 123°06'0 0.0
2017-Aug-04 11:29N 49°19' W 123°06'0 0.0
2017-Aug-04 10:59N 49°19' W 123°06'0 0.0
2017-Aug-04 10:29N 49°19' W 123°06'0 0.0
2017-Aug-04 09:59N 49°19' W 123°06'0 0.0
2017-Aug-04 09:29N 49°19' W 123°06'0 0.0
2017-Aug-04 08:59N 49°19' W 123°06'0 0.0
2017-Aug-04 08:29N 49°19' W 123°06'0 0.0
2017-Aug-04 07:59N 49°19' W 123°06'0 0.1
2017-Aug-04 07:29N 49°19' W 123°07'0 0.1
2017-Aug-04 06:59N 49°19' W 123°06'0 0.0
2017-Aug-04 06:29N 49°19' W 123°06'0 0.0
2017-Aug-04 05:59N 49°19' W 123°06'0 0.0
2017-Aug-04 05:29N 49°19' W 123°06'0 0.0
2017-Aug-04 04:59N 49°19' W 123°06'0 0.0
2017-Aug-04 04:29N 49°19' W 123°06'0 0.0
2017-Aug-04 03:59N 49°19' W 123°06'0 0.0
2017-Aug-04 03:29N 49°19' W 123°06'0 0.0
2017-Aug-04 02:59N 49°19' W 123°06'0 0.1
2017-Aug-04 02:29N 49°19' W 123°07'0 0.0
2017-Aug-04 01:59N 49°19' W 123°07'0 0.1
2017-Aug-04 01:29N 49°19' W 123°06'0 0.0
2017-Aug-04 00:59N 49°19' W 123°06'0 0.0
2017-Aug-04 00:29N 49°19' W 123°06'0 0.0
2017-Aug-03 23:59N 49°19' W 123°06'0 0.0
2017-Aug-03 23:29N 49°19' W 123°06'0 0.0
2017-Aug-03 22:59N 49°19' W 123°06'0 0.0
2017-Aug-03 22:29N 49°19' W 123°06'0 0.0
2017-Aug-03 21:59N 49°19' W 123°06'0 0.0
2017-Aug-03 21:29N 49°19' W 123°06'0 0.0
2017-Aug-03 20:59N 49°19' W 123°06'0 0.0
2017-Aug-03 20:29N 49°19' W 123°06'0 0.0
2017-Aug-03 19:59N 49°19' W 123°06'0 0.0
2017-Aug-03 19:29N 49°19' W 123°06'0 0.0
2017-Aug-03 18:59N 49°19' W 123°06'0 0.0
2017-Aug-03 18:29N 49°19' W 123°06'0 0.0
2017-Aug-03 17:59N 49°19' W 123°06'0 0.0
2017-Aug-03 17:29N 49°19' W 123°06'0 0.0
2017-Aug-03 16:59N 49°19' W 123°06'0 0.0
2017-Aug-03 16:29N 49°19' W 123°06'0 0.0
2017-Aug-03 15:59N 49°19' W 123°06'0 0.0
2017-Aug-03 15:29N 49°19' W 123°06'0 0.0
2017-Aug-03 14:59N 49°19' W 123°06'0 0.0
2017-Aug-03 13:59N 49°19' W 123°06'0 0.0
2017-Aug-03 13:29N 49°19' W 123°06'0 0.0
2017-Aug-03 12:59N 49°19' W 123°06'0 0.0
2017-Aug-03 12:29N 49°19' W 123°06'0 0.0
2017-Aug-03 11:59N 49°19' W 123°06'0 0.0
2017-Aug-03 11:29N 49°19' W 123°06'0 0.0
2017-Aug-03 10:59N 49°19' W 123°06'0 0.0
2017-Aug-03 10:29N 49°19' W 123°06'0 0.0
2017-Aug-03 09:59N 49°19' W 123°06'0 0.0
2017-Aug-03 09:29N 49°19' W 123°06'0 0.0
2017-Aug-03 08:59N 49°19' W 123°06'0 0.0
2017-Aug-03 08:29N 49°19' W 123°06'0 0.0
2017-Aug-03 07:59N 49°19' W 123°06'0 0.0
2017-Aug-03 07:29N 49°19' W 123°06'0 0.0
2017-Aug-03 06:59N 49°19' W 123°06'0 0.0
2017-Aug-03 06:29N 49°19' W 123°06'0 0.0
2017-Aug-03 05:59N 49°19' W 123°06'0 0.0
2017-Aug-03 05:29N 49°19' W 123°06'0 0.0
2017-Aug-03 04:59N 49°19' W 123°06'0 0.0
2017-Aug-03 04:29N 49°19' W 123°06'0 0.0
2017-Aug-03 03:59N 49°19' W 123°06'0 0.0
2017-Aug-03 03:29N 49°19' W 123°06'0 0.0
2017-Aug-03 02:59N 49°19' W 123°06'0 0.0
2017-Aug-03 02:29N 49°19' W 123°06'0 0.0
2017-Aug-03 01:59N 49°19' W 123°06'0 0.0
2017-Aug-03 01:29N 49°19' W 123°06'0 0.0
2017-Aug-03 00:59N 49°19' W 123°06'0 0.0
2017-Aug-03 00:29N 49°19' W 123°06'0 0.0
2017-Aug-02 23:59N 49°19' W 123°06'0 0.0
2017-Aug-02 23:26N 49°19' W 123°06'0 0.0
2017-Aug-02 22:56N 49°19' W 123°06'0 0.0
2017-Aug-02 22:29N 49°19' W 123°06'0 0.1
2017-Aug-02 21:59N 49°18' W 123°07'0 0.0
2017-Aug-02 21:29N 49°19' W 123°07'0 0.0
2017-Aug-02 20:59N 49°18' W 123°07'0 0.0
2017-Aug-02 20:29N 49°19' W 123°07'0 0.0
2017-Aug-02 19:59N 49°19' W 123°07'0 0.0
2017-Aug-02 19:29N 49°18' W 123°07'0 0.0
2017-Aug-02 18:59N 49°18' W 123°07'0 0.0
2017-Aug-02 18:29N 49°18' W 123°07'0 0.0
2017-Aug-02 17:59N 49°18' W 123°07'0 0.0
2017-Aug-02 17:29N 49°18' W 123°07'  
Track history (hours):
 
Tides and Currents Weather Stations Pressure Air Temp Water Temp Dewpoint Dewpoint Depression Visibility Wind Speed Wind Dir Waves Ship Positions

Star Mariella

Last reported at 2017-Aug-12 17:08 UTC. Time now 2017-Aug-20 00:23 UTC.
Position N 24°16' W 113°50'.

Length 229 m; draft 11.9 m.

Type: Cargo ship. MMSI: 538002632.

Date/timePositionNaut miles runAvg speedWind from/ knotsBaromVisibWave heightAir tempDewpointWater temp
2017-Aug-12 17:08N 24°16' W 113°50'1111.0
2017-Aug-12 16:06N 24°23' W 113°59'110.8
2017-Aug-12 16:00N 24°24' W 114°00'610.9
2017-Aug-12 15:28N 24°27' W 114°06'810.8
2017-Aug-12 14:43N 24°32' W 114°13'210.8
2017-Aug-12 14:29N 24°34' W 114°15'9010.9
2017-Aug-12 06:10N 25°28' W 115°35'2311.0
2017-Aug-12 04:06N 25°42' W 115°55'6810.9
2017-Aug-11 21:53N 26°23' W 116°55'511.1
2017-Aug-11 21:27N 26°25' W 116°59'8910.9
2017-Aug-11 13:14N 27°19' W 118°20'210.8
2017-Aug-11 13:01N 27°20' W 118°22'810.8
2017-Aug-11 12:16N 27°25' W 118°29'311.0
2017-Aug-11 11:58N 27°27' W 118°32'1911.0
2017-Aug-11 10:14N 27°39' W 118°49'211.2
2017-Aug-11 10:00N 27°40' W 118°51'611.0
2017-Aug-11 09:29N 27°44' W 118°56'611.0
2017-Aug-11 08:58N 27°47' W 119°02'511.3
2017-Aug-11 08:30N 27°50' W 119°06'611.1
2017-Aug-11 08:01N 27°54' W 119°11'911.0
2017-Aug-11 07:10N 27°59' W 119°20'311.3
2017-Aug-11 06:54N 28°01' W 119°22'411.0
2017-Aug-11 06:30N 28°04' W 119°26'611.1
2017-Aug-11 05:57N 28°07' W 119°32'511.3
2017-Aug-11 05:29N 28°11' W 119°37'511.2
2017-Aug-11 05:01N 28°14' W 119°41'611.1
2017-Aug-11 04:30N 28°17' W 119°47'611.1
2017-Aug-11 04:00N 28°21' W 119°52'611.1
2017-Aug-11 03:31N 28°24' W 119°57'911.0
2017-Aug-11 02:43N 28°29' W 120°05'310.8
2017-Aug-11 02:29N 28°30' W 120°07'511.0
2017-Aug-11 02:00N 28°34' W 120°12'611.1
2017-Aug-11 01:30N 28°37' W 120°17'511.1
2017-Aug-11 01:00N 28°40' W 120°22'611.1
2017-Aug-11 00:27N 28°44' W 120°27'511.0
2017-Aug-11 00:01N 28°47' W 120°32'611.0
2017-Aug-10 23:30N 28°50' W 120°37'611.1
2017-Aug-10 23:00N 28°54' W 120°42'611.0
2017-Aug-10 22:30N 28°57' W 120°47'610.8
2017-Aug-10 21:55N 29°01' W 120°53'510.7
2017-Aug-10 21:26N 29°04' W 120°57'510.6
2017-Aug-10 21:00N 29°07' W 121°02'810.7
2017-Aug-10 20:15N 29°11' W 121°09'310.7
2017-Aug-10 20:00N 29°13' W 121°11'610.7
2017-Aug-10 19:26N 29°17' W 121°17'610.7
2017-Aug-10 18:51N 29°21' W 121°23'410.8
2017-Aug-10 18:27N 29°23' W 121°27'510.7
2017-Aug-10 18:01N 29°26' W 121°31'811.0
2017-Aug-10 17:15N 29°31' W 121°39'311.0
2017-Aug-10 17:00N 29°33' W 121°41'710.9
2017-Aug-10 16:22N 29°37' W 121°48'410.9
2017-Aug-10 15:59N 29°39' W 121°51'911.0
2017-Aug-10 15:13N 29°44' W 121°59'311.0
2017-Aug-10 14:54N 29°46' W 122°03'511.2
2017-Aug-10 14:26N 29°49' W 122°07'811.4
2017-Aug-10 13:43N 29°55' W 122°15'211.5
2017-Aug-10 13:31N 29°56' W 122°17'611.2
2017-Aug-10 13:00N 29°59' W 122°22'611.2
2017-Aug-10 12:31N 30°04' W 122°25'611.3
2017-Aug-10 11:57N 30°09' W 122°29'511.3
2017-Aug-10 11:30N 30°14' W 122°32'711.3
2017-Aug-10 10:55N 30°19' W 122°36'511.3
2017-Aug-10 10:28N 30°24' W 122°40'611.3
2017-Aug-10 09:56N 30°29' W 122°43'511.2
2017-Aug-10 09:30N 30°33' W 122°46'711.3
2017-Aug-10 08:55N 30°39' W 122°50'611.0
2017-Aug-10 08:22N 30°44' W 122°54'411.0
2017-Aug-10 08:00N 30°47' W 122°56'511.1
2017-Aug-10 07:31N 30°52' W 122°59'611.0
2017-Aug-10 07:00N 30°57' W 123°03'511.0
2017-Aug-10 06:30N 31°01' W 123°06'611.1
2017-Aug-10 06:00N 31°06' W 123°09'510.9
2017-Aug-10 05:30N 31°11' W 123°13'610.7
2017-Aug-10 04:58N 31°16' W 123°16'510.7
2017-Aug-10 04:31N 31°20' W 123°19'610.8
2017-Aug-10 03:54N 31°26' W 123°23'410.8
2017-Aug-10 03:31N 31°29' W 123°26'510.6
2017-Aug-10 03:01N 31°34' W 123°29'610.5
2017-Aug-10 02:28N 31°39' W 123°32'610.8
2017-Aug-10 01:56N 31°44' W 123°36'2010.7
2017-Aug-10 00:06N 32°00' W 123°48'3611.0
2017-Aug-09 20:51N 32°31' W 124°10'611.0
2017-Aug-09 20:21N 32°36' W 124°13'911.1
2017-Aug-09 19:32N 32°43' W 124°19'110.8
2017-Aug-09 19:26N 32°44' W 124°19'1611.0
2017-Aug-09 18:00N 32°58' W 124°29'611.0
2017-Aug-09 17:26N 33°03' W 124°33'810.9
2017-Aug-09 16:41N 33°10' W 124°38'710.9
2017-Aug-09 16:05N 33°16' W 124°42'111.0
2017-Aug-09 15:58N 33°17' W 124°43'511.0
2017-Aug-09 15:29N 33°21' W 124°47'511.2
2017-Aug-09 15:00N 33°26' W 124°50'511.0
2017-Aug-09 14:31N 33°31' W 124°53'2311.1
2017-Aug-09 12:26N 33°50' W 125°07'911.5
2017-Aug-09 11:40N 33°58' W 125°13'1411.4
2017-Aug-09 10:27N 34°10' W 125°22'2111.2
2017-Aug-09 08:34N 34°28' W 125°35'111.1
2017-Aug-09 08:27N 34°29' W 125°36'1811.0
2017-Aug-09 06:49N 34°44' W 125°47'510.6
2017-Aug-09 06:22N 34°48' W 125°50'25710.6
2017-Aug-08 06:16N 38°38' W 128°14'610.6
2017-Aug-08 05:43N 38°43' W 128°17'1110.8
2017-Aug-08 04:40N 38°53' W 128°23'1111.0
2017-Aug-08 03:39N 39°04' W 128°28'210.9
2017-Aug-08 03:28N 39°06' W 128°29'510.9
2017-Aug-08 03:00N 39°10' W 128°32'510.8
2017-Aug-08 02:30N 39°15' W 128°35'610.7
2017-Aug-08 01:55N 39°21' W 128°38'410.6
2017-Aug-08 01:30N 39°25' W 128°40'510.3
2017-Aug-08 01:00N 39°30' W 128°43'510.2
2017-Aug-08 00:30N 39°34' W 128°46'2510.4
2017-Aug-07 22:04N 39°59' W 128°52'810.6
2017-Aug-07 21:18N 40°07' W 128°54'510.7
2017-Aug-07 20:50N 40°12' W 128°54'610.6
2017-Aug-07 20:16N 40°18' W 128°55'310.4
2017-Aug-07 20:00N 40°21' W 128°55'510.7
2017-Aug-07 19:30N 40°26' W 128°56'510.5
2017-Aug-07 19:00N 40°31' W 128°57'710.4
2017-Aug-07 18:21N 40°38' W 128°58'510.6
2017-Aug-07 17:54N 40°43' W 128°59'410.4
2017-Aug-07 17:30N 40°47' W 128°59'510.2
2017-Aug-07 17:00N 40°52' W 129°00'510.2
2017-Aug-07 16:30N 40°57' W 129°01'1010.6
2017-Aug-07 15:35N 41°07' W 129°02'110.5
2017-Aug-07 15:30N 41°08' W 129°02'510.9
2017-Aug-07 15:00N 41°13' W 129°03'510.6
2017-Aug-07 14:30N 41°18' W 129°04'610.5
2017-Aug-07 13:59N 41°24' W 129°04'610.4
2017-Aug-07 13:24N 41°30' W 129°05'410.6
2017-Aug-07 12:59N 41°34' W 129°06'610.6
2017-Aug-07 12:25N 41°40' W 129°07'510.7
2017-Aug-07 11:58N 41°45' W 129°08'510.7
2017-Aug-07 11:30N 41°50' W 129°08'510.8
2017-Aug-07 11:00N 41°55' W 129°09'510.7
2017-Aug-07 10:30N 42°01' W 129°10'510.9
2017-Aug-07 10:00N 42°06' W 129°11'510.9
2017-Aug-07 09:30N 42°12' W 129°12'510.7
2017-Aug-07 09:00N 42°17' W 129°12'610.7
2017-Aug-07 08:29N 42°22' W 129°13'510.7
2017-Aug-07 08:00N 42°27' W 129°14'510.5
2017-Aug-07 07:30N 42°33' W 129°14'510.6
2017-Aug-07 07:00N 42°38' W 129°14'510.5
2017-Aug-07 06:30N 42°43' W 129°13'510.6
2017-Aug-07 06:00N 42°48' W 129°13'610.6
2017-Aug-07 05:29N 42°54' W 129°13'510.6
2017-Aug-07 05:00N 42°59' W 129°13'610.9
2017-Aug-07 04:28N 43°05' W 129°13'610.8
2017-Aug-07 03:54N 43°11' W 129°12'410.8
2017-Aug-07 03:30N 43°15' W 129°12'510.7
2017-Aug-07 02:59N 43°21' W 129°12'810.6
2017-Aug-07 02:14N 43°29' W 129°11'310.6
2017-Aug-07 01:57N 43°32' W 129°11'817.4
2017-Aug-07 01:28N 43°40' W 129°11'2 3.4
2017-Aug-07 01:00N 43°42' W 129°11'510.3
2017-Aug-07 00:30N 43°47' W 129°11'510.6
2017-Aug-07 00:00N 43°52' W 129°11'510.4
2017-Aug-06 23:30N 43°57' W 129°11'510.3
2017-Aug-06 23:00N 44°03' W 129°11'510.5
2017-Aug-06 22:30N 44°08' W 129°10'510.5
2017-Aug-06 22:00N 44°13' W 129°10'510.6
2017-Aug-06 21:30N 44°18' W 129°10'710.8
2017-Aug-06 20:54N 44°25' W 129°09'410.9
2017-Aug-06 20:30N 44°29' W 129°09'610.6
2017-Aug-06 19:58N 44°35' W 129°09'910.9
2017-Aug-06 19:10N 44°44' W 129°09'210.9
2017-Aug-06 19:00N 44°45' W 129°09'510.9
2017-Aug-06 18:30N 44°51' W 129°08'510.9
2017-Aug-06 18:00N 44°56' W 129°08'510.7
2017-Aug-06 17:30N 45°02' W 129°08'510.8
2017-Aug-06 17:00N 45°07' W 129°08'810.8
2017-Aug-06 16:14N 45°15' W 129°07'1510.9
2017-Aug-06 14:52N 45°30' W 129°07'710.9
2017-Aug-06 14:14N 45°37' W 129°07'5910.5
2017-Aug-06 08:40N 46°36' W 128°60'210.5
2017-Aug-06 08:29N 46°37' W 128°57'810.7
2017-Aug-06 07:45N 46°41' W 128°48'910.8
2017-Aug-06 06:57N 46°46' W 128°37'510.7
2017-Aug-06 06:30N 46°49' W 128°32'610.7
2017-Aug-06 05:55N 46°52' W 128°24'510.9
2017-Aug-06 05:30N 46°55' W 128°19'611.1
2017-Aug-06 04:58N 46°58' W 128°11'611.0
2017-Aug-06 04:24N 47°02' W 128°04'410.8
2017-Aug-06 04:00N 47°04' W 127°59'610.8
2017-Aug-06 03:27N 47°07' W 127°51'510.7
2017-Aug-06 02:59N 47°10' W 127°45'1110.8
2017-Aug-06 01:58N 47°16' W 127°32'510.5
2017-Aug-06 01:27N 47°19' W 127°25'810.4
2017-Aug-06 00:44N 47°23' W 127°16'510.8
2017-Aug-06 00:17N 47°26' W 127°10'311.1
2017-Aug-06 00:00N 47°28' W 127°06'510.9
2017-Aug-05 23:30N 47°31' W 126°60'611.1
2017-Aug-05 23:00N 47°34' W 126°53'611.1
2017-Aug-05 22:26N 47°38' W 126°45'511.1
2017-Aug-05 22:00N 47°40' W 126°39'611.0
2017-Aug-05 21:30N 47°43' W 126°33'510.7
2017-Aug-05 21:00N 47°47' W 126°26'910.7
2017-Aug-05 20:11N 47°52' W 126°16'210.5
2017-Aug-05 19:58N 47°53' W 126°13'510.4
2017-Aug-05 19:30N 47°55' W 126°07'510.5
2017-Aug-05 19:00N 47°58' W 126°00'510.5
2017-Aug-05 18:30N 48°01' W 125°54'610.5
2017-Aug-05 17:58N 48°04' W 125°47'510.4
2017-Aug-05 17:30N 48°07' W 125°40'610.7
2017-Aug-05 16:57N 48°10' W 125°33'510.8
2017-Aug-05 16:30N 48°13' W 125°27'710.5
2017-Aug-05 15:51N 48°17' W 125°19'511.0
2017-Aug-05 15:27N 48°19' W 125°13'1011.0
2017-Aug-05 14:33N 48°28' W 125°05'310.8
2017-Aug-05 14:16N 48°30' W 125°03'2412.0
2017-Aug-05 12:18N 48°26' W 124°27'412.5
2017-Aug-05 11:57N 48°25' W 124°21'612.2
2017-Aug-05 11:29N 48°22' W 124°14'611.6
2017-Aug-05 10:59N 48°20' W 124°06'511.4
2017-Aug-05 10:30N 48°18' W 123°58'611.3
2017-Aug-05 10:00N 48°17' W 123°49'510.5
2017-Aug-05 09:30N 48°17' W 123°42'5 9.7
2017-Aug-05 09:00N 48°16' W 123°34'4 8.5
2017-Aug-05 08:30N 48°17' W 123°28'510.4
2017-Aug-05 08:00N 48°22' W 123°25'2 4.3
2017-Aug-05 07:30N 48°23' W 123°22'1 2.9
2017-Aug-05 07:00N 48°23' W 123°21'5 9.6
2017-Aug-05 06:30N 48°25' W 123°14'611.2
2017-Aug-05 06:00N 48°30' W 123°13'713.3
2017-Aug-05 05:30N 48°37' W 123°14'611.4
2017-Aug-05 05:00N 48°42' W 123°15'713.3
2017-Aug-05 04:30N 48°45' W 123°05'5 9.7
2017-Aug-05 04:00N 48°49' W 123°01'713.2
2017-Aug-05 03:30N 48°54' W 123°08'713.0
2017-Aug-05 02:58N 48°59' W 123°16'613.0
2017-Aug-05 02:30N 49°03' W 123°22'612.1
2017-Aug-05 02:00N 49°09' W 123°22'612.1
2017-Aug-05 01:30N 49°15' W 123°20'510.7
2017-Aug-05 01:00N 49°19' W 123°15'5 9.4
2017-Aug-05 00:30N 49°19' W 123°08'1 1.8
2017-Aug-05 00:00N 49°19' W 123°06'0 0.0
2017-Aug-04 23:29N 49°19' W 123°06'0 0.0
2017-Aug-04 22:59N 49°19' W 123°06'0 0.0
2017-Aug-04 22:29N 49°19' W 123°06'0 0.0
2017-Aug-04 21:59N 49°19' W 123°06'0 0.0
2017-Aug-04 21:29N 49°19' W 123°06'0 0.0
2017-Aug-04 20:59N 49°19' W 123°06'0 0.0
2017-Aug-04 20:29N 49°19' W 123°06'0 0.0
2017-Aug-04 19:59N 49°19' W 123°06'0 0.0
2017-Aug-04 19:29N 49°19' W 123°06'0 0.0
2017-Aug-04 18:59N 49°19' W 123°06'0 0.0
2017-Aug-04 18:29N 49°19' W 123°06'0 0.0
2017-Aug-04 17:59N 49°18' W 123°06'0 0.0
2017-Aug-04 17:29N 49°19' W 123°06'0 0.0
2017-Aug-04 16:59N 49°19' W 123°06'0 0.0
2017-Aug-04 16:29N 49°19' W 123°06'0 0.0
2017-Aug-04 15:59N 49°19' W 123°06'0 0.0
2017-Aug-04 15:23N 49°19' W 123°06'0 0.0
2017-Aug-04 14:59N 49°19' W 123°06'0 0.0
2017-Aug-04 13:59N 49°19' W 123°06'0 0.0
2017-Aug-04 13:29N 49°19' W 123°06'0 0.0
2017-Aug-04 12:59N 49°19' W 123°06'0 0.0
2017-Aug-04 12:29N 49°19' W 123°06'0 0.0
2017-Aug-04 11:59N 49°18' W 123°06'0 0.0
2017-Aug-04 11:29N 49°19' W 123°06'0 0.0
2017-Aug-04 10:59N 49°19' W 123°06'0 0.0
2017-Aug-04 10:29N 49°19' W 123°06'0 0.0
2017-Aug-04 09:59N 49°19' W 123°06'0 0.0
2017-Aug-04 09:29N 49°19' W 123°06'0 0.0
2017-Aug-04 08:59N 49°19' W 123°06'0 0.0
2017-Aug-04 08:29N 49°19' W 123°06'0 0.0
2017-Aug-04 07:59N 49°19' W 123°06'0 0.1
2017-Aug-04 07:29N 49°19' W 123°07'0 0.1
2017-Aug-04 06:59N 49°19' W 123°06'0 0.0
2017-Aug-04 06:29N 49°19' W 123°06'0 0.0
2017-Aug-04 05:59N 49°19' W 123°06'0 0.0
2017-Aug-04 05:29N 49°19' W 123°06'0 0.0
2017-Aug-04 04:59N 49°19' W 123°06'0 0.0
2017-Aug-04 04:29N 49°19' W 123°06'0 0.0
2017-Aug-04 03:59N 49°19' W 123°06'0 0.0
2017-Aug-04 03:29N 49°19' W 123°06'0 0.0
2017-Aug-04 02:59N 49°19' W 123°06'0 0.1
2017-Aug-04 02:29N 49°19' W 123°07'0 0.0
2017-Aug-04 01:59N 49°19' W 123°07'0 0.1
2017-Aug-04 01:29N 49°19' W 123°06'0 0.0
2017-Aug-04 00:59N 49°19' W 123°06'0 0.0
2017-Aug-04 00:29N 49°19' W 123°06'0 0.0
2017-Aug-03 23:59N 49°19' W 123°06'0 0.0
2017-Aug-03 23:29N 49°19' W 123°06'0 0.0
2017-Aug-03 22:59N 49°19' W 123°06'0 0.0
2017-Aug-03 22:29N 49°19' W 123°06'0 0.0
2017-Aug-03 21:59N 49°19' W 123°06'0 0.0
2017-Aug-03 21:29N 49°19' W 123°06'0 0.0
2017-Aug-03 20:59N 49°19' W 123°06'0 0.0
2017-Aug-03 20:29N 49°19' W 123°06'0 0.0
2017-Aug-03 19:59N 49°19' W 123°06'0 0.0
2017-Aug-03 19:29N 49°19' W 123°06'0 0.0
2017-Aug-03 18:59N 49°19' W 123°06'0 0.0
2017-Aug-03 18:29N 49°19' W 123°06'0 0.0
2017-Aug-03 17:59N 49°19' W 123°06'0 0.0
2017-Aug-03 17:29N 49°19' W 123°06'0 0.0
2017-Aug-03 16:59N 49°19' W 123°06'0 0.0
2017-Aug-03 16:29N 49°19' W 123°06'0 0.0
2017-Aug-03 15:59N 49°19' W 123°06'0 0.0
2017-Aug-03 15:29N 49°19' W 123°06'0 0.0
2017-Aug-03 14:59N 49°19' W 123°06'0 0.0
2017-Aug-03 13:59N 49°19' W 123°06'0 0.0
2017-Aug-03 13:29N 49°19' W 123°06'0 0.0
2017-Aug-03 12:59N 49°19' W 123°06'0 0.0
2017-Aug-03 12:29N 49°19' W 123°06'0 0.0
2017-Aug-03 11:59N 49°19' W 123°06'0 0.0
2017-Aug-03 11:29N 49°19' W 123°06'0 0.0
2017-Aug-03 10:59N 49°19' W 123°06'0 0.0
2017-Aug-03 10:29N 49°19' W 123°06'0 0.0
2017-Aug-03 09:59N 49°19' W 123°06'0 0.0
2017-Aug-03 09:29N 49°19' W 123°06'0 0.0
2017-Aug-03 08:59N 49°19' W 123°06'0 0.0
2017-Aug-03 08:29N 49°19' W 123°06'0 0.0
2017-Aug-03 07:59N 49°19' W 123°06'0 0.0
2017-Aug-03 07:29N 49°19' W 123°06'0 0.0
2017-Aug-03 06:59N 49°19' W 123°06'0 0.0
2017-Aug-03 06:29N 49°19' W 123°06'0 0.0
2017-Aug-03 05:59N 49°19' W 123°06'0 0.0
2017-Aug-03 05:29N 49°19' W 123°06'0 0.0
2017-Aug-03 04:59N 49°19' W 123°06'0 0.0
2017-Aug-03 04:29N 49°19' W 123°06'0 0.0
2017-Aug-03 03:59N 49°19' W 123°06'0 0.0
2017-Aug-03 03:29N 49°19' W 123°06'0 0.0
2017-Aug-03 02:59N 49°19' W 123°06'0 0.0
2017-Aug-03 02:29N 49°19' W 123°06'0 0.0
2017-Aug-03 01:59N 49°19' W 123°06'0 0.0
2017-Aug-03 01:29N 49°19' W 123°06'0 0.0
2017-Aug-03 00:59N 49°19' W 123°06'0 0.0
2017-Aug-03 00:29N 49°19' W 123°06'0 0.0
2017-Aug-02 23:59N 49°19' W 123°06'0 0.0
2017-Aug-02 23:26N 49°19' W 123°06'0 0.0
2017-Aug-02 22:56N 49°19' W 123°06'0 0.0
2017-Aug-02 22:29N 49°19' W 123°06'0 0.1
2017-Aug-02 21:59N 49°18' W 123°07'0 0.0
2017-Aug-02 21:29N 49°19' W 123°07'0 0.0
2017-Aug-02 20:59N 49°18' W 123°07'0 0.0
2017-Aug-02 20:29N 49°19' W 123°07'0 0.0
2017-Aug-02 19:59N 49°19' W 123°07'0 0.0
2017-Aug-02 19:29N 49°18' W 123°07'0 0.0
2017-Aug-02 18:59N 49°18' W 123°07'0 0.0
2017-Aug-02 18:29N 49°18' W 123°07'0 0.0
2017-Aug-02 17:59N 49°18' W 123°07'0 0.0
2017-Aug-02 17:29N 49°18' W 123°07'  

Dump ship's entire track history